sensor_id;sensor_type;location;lat;lon;timestamp;pressure;altitude;pressure_sealevel;temperature;humidity
78843;BME280;70542;53.774;-0.352;2023-12-20T00:02:09;101560;;;4;56
78843;BME280;70542;53.774;-0.352;2023-12-20T00:07:49;101550;;;5;55
78843;BME280;70542;53.774;-0.352;2023-12-20T00:13:31;101560;;;6;55
78843;BME280;70542;53.774;-0.352;2023-12-20T00:19:20;101550;;;6;54
78843;BME280;70542;53.774;-0.352;2023-12-20T00:25:09;101550;;;6;54
78843;BME280;70542;53.774;-0.352;2023-12-20T00:30:48;101530;;;6;53
78843;BME280;70542;53.774;-0.352;2023-12-20T00:36:39;101520;;;6;53
78843;BME280;70542;53.774;-0.352;2023-12-20T00:43:03;101500;;;6;54
78843;BME280;70542;53.774;-0.352;2023-12-20T00:49:05;101500;;;6;56
78843;BME280;70542;53.774;-0.352;2023-12-20T00:54:45;101480;;;5;59
78843;BME280;70542;53.774;-0.352;2023-12-20T01:00:24;101480;;;6;57
78843;BME280;70542;53.774;-0.352;2023-12-20T01:06:03;101480;;;6;57
78843;BME280;70542;53.774;-0.352;2023-12-20T01:11:42;101490;;;4;60
78843;BME280;70542;53.774;-0.352;2023-12-20T01:17:21;101500;;;5;58
78843;BME280;70542;53.774;-0.352;2023-12-20T01:23:00;101480;;;5;58
78843;BME280;70542;53.774;-0.352;2023-12-20T01:28:38;101470;;;6;56
78843;BME280;70542;53.774;-0.352;2023-12-20T01:34:17;101470;;;5;59
78843;BME280;70542;53.774;-0.352;2023-12-20T01:39:56;101480;;;6;57
78843;BME280;70542;53.774;-0.352;2023-12-20T01:45:44;101470;;;4;61
78843;BME280;70542;53.774;-0.352;2023-12-20T01:51:23;101460;;;5;59
78843;BME280;70542;53.774;-0.352;2023-12-20T01:57:04;101450;;;5;58
78843;BME280;70542;53.774;-0.352;2023-12-20T02:02:49;101460;;;5;59
78843;BME280;70542;53.774;-0.352;2023-12-20T02:08:29;101460;;;5;58
78843;BME280;70542;53.774;-0.352;2023-12-20T02:14:08;101460;;;5;57
78843;BME280;70542;53.774;-0.352;2023-12-20T02:19:47;101450;;;5;58
78843;BME280;70542;53.774;-0.352;2023-12-20T02:25:26;101440;;;5;59
78843;BME280;70542;53.774;-0.352;2023-12-20T02:31:05;101440;;;5;59
78843;BME280;70542;53.774;-0.352;2023-12-20T02:36:48;101440;;;5;59
78843;BME280;70542;53.774;-0.352;2023-12-20T02:42:27;101440;;;5;60
78843;BME280;70542;53.774;-0.352;2023-12-20T02:48:13;101430;;;5;60
78843;BME280;70542;53.774;-0.352;2023-12-20T02:53:52;101430;;;6;57
78843;BME280;70542;53.774;-0.352;2023-12-20T02:59:36;101430;;;5;59
78843;BME280;70542;53.774;-0.352;2023-12-20T03:05:18;101420;;;5;60
78843;BME280;70542;53.774;-0.352;2023-12-20T03:11:02;101420;;;5;61
78843;BME280;70542;53.774;-0.352;2023-12-20T03:16:41;101400;;;5;60
78843;BME280;70542;53.774;-0.352;2023-12-20T03:22:20;101400;;;5;62
78843;BME280;70542;53.774;-0.352;2023-12-20T03:28:03;101400;;;5;60
78843;BME280;70542;53.774;-0.352;2023-12-20T03:33:46;101400;;;5;62
78843;BME280;70542;53.774;-0.352;2023-12-20T03:39:28;101400;;;4;64
78843;BME280;70542;53.774;-0.352;2023-12-20T03:45:15;101390;;;5;63
78843;BME280;70542;53.774;-0.352;2023-12-20T03:50:54;101400;;;4;64
78843;BME280;70542;53.774;-0.352;2023-12-20T03:56:32;101390;;;5;62
78843;BME280;70542;53.774;-0.352;2023-12-20T04:02:16;101380;;;5;64
78843;BME280;70542;53.774;-0.352;2023-12-20T04:08:04;101370;;;5;63
78843;BME280;70542;53.774;-0.352;2023-12-20T04:13:43;101380;;;5;62
78843;BME280;70542;53.774;-0.352;2023-12-20T04:19:22;101370;;;5;63
78843;BME280;70542;53.774;-0.352;2023-12-20T04:25:01;101370;;;5;63
78843;BME280;70542;53.774;-0.352;2023-12-20T04:30:39;101370;;;6;62
78843;BME280;70542;53.774;-0.352;2023-12-20T04:36:25;101380;;;5;64
78843;BME280;70542;53.774;-0.352;2023-12-20T04:42:18;101370;;;5;64
78843;BME280;70542;53.774;-0.352;2023-12-20T04:47:57;101370;;;5;63
78843;BME280;70542;53.774;-0.352;2023-12-20T04:53:36;101390;;;6;63
78843;BME280;70542;53.774;-0.352;2023-12-20T04:59:27;101390;;;6;62
78843;BME280;70542;53.774;-0.352;2023-12-20T05:05:15;101390;;;6;60
78843;BME280;70542;53.774;-0.352;2023-12-20T05:11:06;101400;;;6;59
78843;BME280;70542;53.774;-0.352;2023-12-20T05:16:53;101400;;;6;59
78843;BME280;70542;53.774;-0.352;2023-12-20T05:22:31;101400;;;6;59
78843;BME280;70542;53.774;-0.352;2023-12-20T05:28:10;101390;;;6;59
78843;BME280;70542;53.774;-0.352;2023-12-20T05:33:52;101390;;;6;58
78843;BME280;70542;53.774;-0.352;2023-12-20T05:39:40;101390;;;6;58
78843;BME280;70542;53.774;-0.352;2023-12-20T05:45:30;101400;;;6;58
78843;BME280;70542;53.774;-0.352;2023-12-20T05:51:14;101380;;;6;59
78843;BME280;70542;53.774;-0.352;2023-12-20T05:56:52;101380;;;5;61
78843;BME280;70542;53.774;-0.352;2023-12-20T06:02:35;101380;;;6;60
78843;BME280;70542;53.774;-0.352;2023-12-20T06:08:36;101380;;;6;60
78843;BME280;70542;53.774;-0.352;2023-12-20T06:14:35;101380;;;6;61
78843;BME280;70542;53.774;-0.352;2023-12-20T06:20:17;101370;;;6;61
78843;BME280;70542;53.774;-0.352;2023-12-20T06:26:04;101370;;;6;62
78843;BME280;70542;53.774;-0.352;2023-12-20T06:31:56;101370;;;5;63
78843;BME280;70542;53.774;-0.352;2023-12-20T06:37:34;101370;;;5;63
78843;BME280;70542;53.774;-0.352;2023-12-20T06:43:13;101390;;;6;62
78843;BME280;70542;53.774;-0.352;2023-12-20T06:48:57;101410;;;6;61
78843;BME280;70542;53.774;-0.352;2023-12-20T06:54:49;101410;;;6;63
78843;BME280;70542;53.774;-0.352;2023-12-20T07:00:32;101430;;;6;62
78843;BME280;70542;53.774;-0.352;2023-12-20T07:06:23;101430;;;6;61
78843;BME280;70542;53.774;-0.352;2023-12-20T07:12:11;101420;;;6;62
78843;BME280;70542;53.774;-0.352;2023-12-20T07:17:54;101430;;;5;63
78843;BME280;70542;53.774;-0.352;2023-12-20T07:23:33;101420;;;6;63
78843;BME280;70542;53.774;-0.352;2023-12-20T07:29:23;101430;;;6;62
78843;BME280;70542;53.774;-0.352;2023-12-20T07:35:09;101430;;;5;62
78843;BME280;70542;53.774;-0.352;2023-12-20T07:40:51;101430;;;6;60
78843;BME280;70542;53.774;-0.352;2023-12-20T07:46:36;101440;;;6;58
78843;BME280;70542;53.774;-0.352;2023-12-20T07:52:21;101450;;;6;60
78843;BME280;70542;53.774;-0.352;2023-12-20T07:58:07;101440;;;7;59
78843;BME280;70542;53.774;-0.352;2023-12-20T08:03:46;101430;;;7;57
78843;BME280;70542;53.774;-0.352;2023-12-20T08:09:28;101430;;;7;55
78843;BME280;70542;53.774;-0.352;2023-12-20T08:15:24;101450;;;7;57
78843;BME280;70542;53.774;-0.352;2023-12-20T08:21:03;101440;;;7;54
78843;BME280;70542;53.774;-0.352;2023-12-20T08:26:56;101440;;;7;56
78843;BME280;70542;53.774;-0.352;2023-12-20T08:32:46;101440;;;7;57
78843;BME280;70542;53.774;-0.352;2023-12-20T08:38:31;101450;;;7;57
78843;BME280;70542;53.774;-0.352;2023-12-20T08:44:24;101460;;;7;58
78843;BME280;70542;53.774;-0.352;2023-12-20T08:50:20;101450;;;6;58
78843;BME280;70542;53.774;-0.352;2023-12-20T08:56:03;101440;;;7;58
78843;BME280;70542;53.774;-0.352;2023-12-20T09:02:04;101440;;;7;58
78843;BME280;70542;53.774;-0.352;2023-12-20T09:07:44;101440;;;7;58
78843;BME280;70542;53.774;-0.352;2023-12-20T09:13:30;101450;;;6;60
78843;BME280;70542;53.774;-0.352;2023-12-20T09:19:18;101430;;;6;60
78843;BME280;70542;53.774;-0.352;2023-12-20T09:25:19;101430;;;6;59
78843;BME280;70542;53.774;-0.352;2023-12-20T09:31:04;101420;;;7;59
78843;BME280;70542;53.774;-0.352;2023-12-20T09:36:47;101420;;;7;56
78843;BME280;70542;53.774;-0.352;2023-12-20T09:42:51;101420;;;8;54
78843;BME280;70542;53.774;-0.352;2023-12-20T09:48:55;101420;;;9;53
78843;BME280;70542;53.774;-0.352;2023-12-20T09:54:50;101410;;;8;54
78843;BME280;70542;53.774;-0.352;2023-12-20T10:00:36;101410;;;9;52
78843;BME280;70542;53.774;-0.352;2023-12-20T10:06:22;101410;;;10;49
78843;BME280;70542;53.774;-0.352;2023-12-20T10:12:17;101400;;;10;49
78843;BME280;70542;53.774;-0.352;2023-12-20T10:18:08;101380;;;9;50
78843;BME280;70542;53.774;-0.352;2023-12-20T10:23:58;101360;;;10;49
78843;BME280;70542;53.774;-0.352;2023-12-20T10:29:42;101340;;;9;52
78843;BME280;70542;53.774;-0.352;2023-12-20T10:35:21;101340;;;7;57
78843;BME280;70542;53.774;-0.352;2023-12-20T10:41:09;101330;;;8;56
78843;BME280;70542;53.774;-0.352;2023-12-20T10:46:52;101330;;;7;59
78843;BME280;70542;53.774;-0.352;2023-12-20T10:52:44;101300;;;8;56
78843;BME280;70542;53.774;-0.352;2023-12-20T10:58:29;101300;;;8;55
78843;BME280;70542;53.774;-0.352;2023-12-20T11:04:28;101270;;;8;56
78843;BME280;70542;53.774;-0.352;2023-12-20T11:10:16;101250;;;8;55
78843;BME280;70542;53.774;-0.352;2023-12-20T11:16:05;101230;;;9;54
78843;BME280;70542;53.774;-0.352;2023-12-20T11:21:46;101210;;;8;57
78843;BME280;70542;53.774;-0.352;2023-12-20T11:27:26;101210;;;8;59
78843;BME280;70542;53.774;-0.352;2023-12-20T11:33:08;101200;;;8;59
78843;BME280;70542;53.774;-0.352;2023-12-20T11:38:54;101190;;;7;63
78843;BME280;70542;53.774;-0.352;2023-12-20T11:44:34;101190;;;7;63
78843;BME280;70542;53.774;-0.352;2023-12-20T11:50:15;101160;;;8;59
78843;BME280;70542;53.774;-0.352;2023-12-20T11:55:54;101140;;;8;61
78843;BME280;70542;53.774;-0.352;2023-12-20T12:01:33;101110;;;7;62
78843;BME280;70542;53.774;-0.352;2023-12-20T12:07:12;101090;;;8;62
78843;BME280;70542;53.774;-0.352;2023-12-20T12:12:50;101070;;;8;62
78843;BME280;70542;53.774;-0.352;2023-12-20T12:18:29;101060;;;8;62
78843;BME280;70542;53.774;-0.352;2023-12-20T12:24:13;101040;;;9;58
78843;BME280;70542;53.774;-0.352;2023-12-20T12:30:01;101030;;;9;60
78843;BME280;70542;53.774;-0.352;2023-12-20T12:35:40;101030;;;9;58
78843;BME280;70542;53.774;-0.352;2023-12-20T12:41:19;101040;;;8;60
78843;BME280;70542;53.774;-0.352;2023-12-20T12:47:04;101040;;;9;58
78843;BME280;70542;53.774;-0.352;2023-12-20T12:52:43;101030;;;9;57
78843;BME280;70542;53.774;-0.352;2023-12-20T12:58:22;101050;;;8;60
78843;BME280;70542;53.774;-0.352;2023-12-20T13:04:01;101050;;;8;61
78843;BME280;70542;53.774;-0.352;2023-12-20T13:09:48;101030;;;8;61
78843;BME280;70542;53.774;-0.352;2023-12-20T13:15:27;101030;;;8;61
78843;BME280;70542;53.774;-0.352;2023-12-20T13:21:06;101010;;;8;61
78843;BME280;70542;53.774;-0.352;2023-12-20T13:26:44;101000;;;8;60
78843;BME280;70542;53.774;-0.352;2023-12-20T13:32:27;100990;;;9;59
78843;BME280;70542;53.774;-0.352;2023-12-20T13:38:13;100980;;;8;62
78843;BME280;70542;53.774;-0.352;2023-12-20T13:43:53;100980;;;9;61
78843;BME280;70542;53.774;-0.352;2023-12-20T13:49:32;100970;;;8;62
78843;BME280;70542;53.774;-0.352;2023-12-20T13:55:10;100950;;;8;62
78843;BME280;70542;53.774;-0.352;2023-12-20T14:00:49;100940;;;8;61
78843;BME280;70542;53.774;-0.352;2023-12-20T14:06:28;100930;;;8;61
78843;BME280;70542;53.774;-0.352;2023-12-20T14:12:07;100920;;;9;60
78843;BME280;70542;53.774;-0.352;2023-12-20T14:17:46;100910;;;9;60
78843;BME280;70542;53.774;-0.352;2023-12-20T14:23:25;100920;;;9;61
78843;BME280;70542;53.774;-0.352;2023-12-20T14:29:04;100910;;;8;61
78843;BME280;70542;53.774;-0.352;2023-12-20T14:34:43;100900;;;8;63
78843;BME280;70542;53.774;-0.352;2023-12-20T14:40:21;100900;;;9;61
78843;BME280;70542;53.774;-0.352;2023-12-20T14:46:09;100900;;;8;63
78843;BME280;70542;53.774;-0.352;2023-12-20T14:51:48;100890;;;8;62
78843;BME280;70542;53.774;-0.352;2023-12-20T14:57:26;100880;;;9;60
78843;BME280;70542;53.774;-0.352;2023-12-20T15:03:05;100880;;;9;61
78843;BME280;70542;53.774;-0.352;2023-12-20T15:08:45;100880;;;8;62
78843;BME280;70542;53.774;-0.352;2023-12-20T15:14:26;100890;;;9;61
78843;BME280;70542;53.774;-0.352;2023-12-20T15:20:10;100890;;;9;61
78843;BME280;70542;53.774;-0.352;2023-12-20T15:25:49;100890;;;9;62
78843;BME280;70542;53.774;-0.352;2023-12-20T15:31:27;100870;;;9;63
78843;BME280;70542;53.774;-0.352;2023-12-20T15:37:06;100880;;;8;61
78843;BME280;70542;53.774;-0.352;2023-12-20T15:42:45;100870;;;9;61
78843;BME280;70542;53.774;-0.352;2023-12-20T15:48:23;100870;;;9;62
78843;BME280;70542;53.774;-0.352;2023-12-20T15:54:10;100860;;;9;61
78843;BME280;70542;53.774;-0.352;2023-12-20T15:59:49;100850;;;9;62
78843;BME280;70542;53.774;-0.352;2023-12-20T16:05:27;100840;;;9;61
78843;BME280;70542;53.774;-0.352;2023-12-20T16:11:06;100820;;;9;61
78843;BME280;70542;53.774;-0.352;2023-12-20T16:16:45;100830;;;8;63
78843;BME280;70542;53.774;-0.352;2023-12-20T16:22:28;100810;;;8;63
78843;BME280;70542;53.774;-0.352;2023-12-20T16:28:07;100810;;;8;64
78843;BME280;70542;53.774;-0.352;2023-12-20T16:33:46;100820;;;8;63
78843;BME280;70542;53.774;-0.352;2023-12-20T16:39:25;100810;;;8;64
78843;BME280;70542;53.774;-0.352;2023-12-20T16:45:09;100810;;;8;63
78843;BME280;70542;53.774;-0.352;2023-12-20T16:50:48;100800;;;8;63
78843;BME280;70542;53.774;-0.352;2023-12-20T16:56:28;100790;;;8;63
78843;BME280;70542;53.774;-0.352;2023-12-20T17:02:06;100770;;;8;64
78843;BME280;70542;53.774;-0.352;2023-12-20T17:07:45;100750;;;8;64
78843;BME280;70542;53.774;-0.352;2023-12-20T17:13:36;100750;;;9;63
78843;BME280;70542;53.774;-0.352;2023-12-20T17:19:15;100730;;;8;64
78843;BME280;70542;53.774;-0.352;2023-12-20T17:24:54;100740;;;8;64
78843;BME280;70542;53.774;-0.352;2023-12-20T17:30:33;100740;;;8;66
78843;BME280;70542;53.774;-0.352;2023-12-20T17:36:11;100740;;;8;65
78843;BME280;70542;53.774;-0.352;2023-12-20T17:41:50;100750;;;8;63
78843;BME280;70542;53.774;-0.352;2023-12-20T17:47:29;100760;;;8;63
78843;BME280;70542;53.774;-0.352;2023-12-20T17:53:07;100770;;;8;63
78843;BME280;70542;53.774;-0.352;2023-12-20T17:58:46;100780;;;8;63
78843;BME280;70542;53.774;-0.352;2023-12-20T18:04:29;100790;;;9;63
78843;BME280;70542;53.774;-0.352;2023-12-20T18:10:08;100810;;;9;61
78843;BME280;70542;53.774;-0.352;2023-12-20T18:15:47;100800;;;9;61
78843;BME280;70542;53.774;-0.352;2023-12-20T18:21:26;100800;;;9;61
78843;BME280;70542;53.774;-0.352;2023-12-20T18:27:04;100790;;;9;61
78843;BME280;70542;53.774;-0.352;2023-12-20T18:32:43;100810;;;9;57
78843;BME280;70542;53.774;-0.352;2023-12-20T18:38:22;100790;;;9;59
78843;BME280;70542;53.774;-0.352;2023-12-20T18:44:01;100780;;;9;61
78843;BME280;70542;53.774;-0.352;2023-12-20T18:49:40;100790;;;9;62
78843;BME280;70542;53.774;-0.352;2023-12-20T18:55:18;100780;;;9;61
78843;BME280;70542;53.774;-0.352;2023-12-20T19:00:57;100800;;;9;61
78843;BME280;70542;53.774;-0.352;2023-12-20T19:06:36;100800;;;9;61
78843;BME280;70542;53.774;-0.352;2023-12-20T19:12:19;100770;;;9;60
78843;BME280;70542;53.774;-0.352;2023-12-20T19:17:58;100780;;;9;61
78843;BME280;70542;53.774;-0.352;2023-12-20T19:23:40;100750;;;9;62
78843;BME280;70542;53.774;-0.352;2023-12-20T19:29:23;100740;;;9;61
78843;BME280;70542;53.774;-0.352;2023-12-20T19:35:03;100750;;;8;63
78843;BME280;70542;53.774;-0.352;2023-12-20T19:40:42;100760;;;8;64
78843;BME280;70542;53.774;-0.352;2023-12-20T19:46:21;100720;;;8;65
78843;BME280;70542;53.774;-0.352;2023-12-20T19:52:00;100740;;;8;65
78843;BME280;70542;53.774;-0.352;2023-12-20T19:57:42;100720;;;8;64
78843;BME280;70542;53.774;-0.352;2023-12-20T20:03:21;100710;;;8;64
78843;BME280;70542;53.774;-0.352;2023-12-20T20:09:01;100720;;;8;64
78843;BME280;70542;53.774;-0.352;2023-12-20T20:14:40;100700;;;8;65
78843;BME280;70542;53.774;-0.352;2023-12-20T20:20:23;100700;;;8;65
78843;BME280;70542;53.774;-0.352;2023-12-20T20:26:08;100690;;;8;64
78843;BME280;70542;53.774;-0.352;2023-12-20T20:31:47;100680;;;8;65
78843;BME280;70542;53.774;-0.352;2023-12-20T20:37:34;100690;;;8;66
78843;BME280;70542;53.774;-0.352;2023-12-20T20:43:45;100700;;;8;66
78843;BME280;70542;53.774;-0.352;2023-12-20T20:49:28;100690;;;9;64
78843;BME280;70542;53.774;-0.352;2023-12-20T20:55:07;100710;;;8;65
78843;BME280;70542;53.774;-0.352;2023-12-20T21:00:59;100700;;;8;64
78843;BME280;70542;53.774;-0.352;2023-12-20T21:06:38;100710;;;9;63
78843;BME280;70542;53.774;-0.352;2023-12-20T21:12:18;100710;;;8;62
78843;BME280;70542;53.774;-0.352;2023-12-20T21:17:57;100710;;;9;60
78843;BME280;70542;53.774;-0.352;2023-12-20T21:23:36;100720;;;10;57
78843;BME280;70542;53.774;-0.352;2023-12-20T21:29:14;100720;;;12;50
78843;BME280;70542;53.774;-0.352;2023-12-20T21:35:00;100710;;;11;52
78843;BME280;70542;53.774;-0.352;2023-12-20T21:40:40;100700;;;12;51
78843;BME280;70542;53.774;-0.352;2023-12-20T21:46:19;100710;;;10;58
78843;BME280;70542;53.774;-0.352;2023-12-20T21:52:16;100700;;;9;59
78843;BME280;70542;53.774;-0.352;2023-12-20T21:57:57;100680;;;9;61
78843;BME280;70542;53.774;-0.352;2023-12-20T22:03:40;100650;;;8;63
78843;BME280;70542;53.774;-0.352;2023-12-20T22:09:25;100620;;;8;63
78843;BME280;70542;53.774;-0.352;2023-12-20T22:15:10;100620;;;9;63
78843;BME280;70542;53.774;-0.352;2023-12-20T22:20:54;100590;;;8;65
78843;BME280;70542;53.774;-0.352;2023-12-20T22:26:33;100580;;;8;64
78843;BME280;70542;53.774;-0.352;2023-12-20T22:32:13;100570;;;8;65
78843;BME280;70542;53.774;-0.352;2023-12-20T22:37:52;100560;;;8;64
78843;BME280;70542;53.774;-0.352;2023-12-20T22:43:40;100550;;;8;64
78843;BME280;70542;53.774;-0.352;2023-12-20T22:49:19;100550;;;9;62
78843;BME280;70542;53.774;-0.352;2023-12-20T22:54:59;100520;;;8;61
78843;BME280;70542;53.774;-0.352;2023-12-20T23:00:52;100500;;;8;63
78843;BME280;70542;53.774;-0.352;2023-12-20T23:06:31;100490;;;8;63
78843;BME280;70542;53.774;-0.352;2023-12-20T23:12:10;100500;;;8;62
78843;BME280;70542;53.774;-0.352;2023-12-20T23:17:54;100490;;;9;60
78843;BME280;70542;53.774;-0.352;2023-12-20T23:23:38;100490;;;10;56
78843;BME280;70542;53.774;-0.352;2023-12-20T23:29:16;100490;;;9;60
78843;BME280;70542;53.774;-0.352;2023-12-20T23:34:55;100480;;;9;60
78843;BME280;70542;53.774;-0.352;2023-12-20T23:40:35;100470;;;9;61
78843;BME280;70542;53.774;-0.352;2023-12-20T23:46:14;100440;;;10;58
78843;BME280;70542;53.774;-0.352;2023-12-20T23:51:53;100440;;;9;60
78843;BME280;70542;53.774;-0.352;2023-12-20T23:57:38;100420;;;10;57
